Time,TemperatureF,DewpointF,PressureIn,WindDirection,WindDirectionDegrees,WindSpeedMPH,WindSpeedGustMPH,Humidity,HourlyPrecipIn,Conditions,Clouds,dailyrainin,SoftwareType,DateUTC
2013-02-14 00:00:00,19.8,14.0,29.86,SSE,165,0.0,0.0,78,0.00,,OVC033,0.00,VWS V14.01,2013-02-14 05:00:00,
2013-02-14 00:05:00,19.6,13.9,29.86,SSE,164,0.0,0.0,78,0.00,,OVC033,0.00,VWS V14.01,2013-02-14 05:05:00,
2013-02-14 00:10:00,19.4,13.7,29.86,SSE,164,0.0,0.0,78,0.00,,OVC033,0.00,VWS V14.01,2013-02-14 05:10:00,
2013-02-14 00:15:00,19.0,13.3,29.86,SSE,165,0.0,0.0,78,0.00,,OVC033,0.00,VWS V14.01,2013-02-14 05:15:00,
2013-02-14 00:20:00,18.7,13.0,29.86,SSE,164,0.0,0.0,78,0.00,,OVC033,0.00,VWS V14.01,2013-02-14 05:20:00,
2013-02-14 00:25:00,18.3,12.6,29.86,SSE,165,0.0,0.0,78,0.00,,OVC033,0.00,VWS V14.01,2013-02-14 05:25:00,
2013-02-14 00:30:00,17.8,12.1,29.86,SSE,164,0.0,0.0,78,0.00,,OVC033,0.00,VWS V14.01,2013-02-14 05:30:00,
2013-02-14 00:35:00,17.8,12.4,29.86,SSE,164,0.0,0.0,79,0.00,,OVC033,0.00,VWS V14.01,2013-02-14 05:35:00,
2013-02-14 00:40:00,17.8,12.4,29.86,SSE,164,0.0,0.0,79,0.00,,OVC035,0.00,VWS V14.01,2013-02-14 05:40:00,
2013-02-14 00:45:00,17.6,12.2,29.86,SSE,164,0.0,0.0,79,0.00,,OVC035,0.00,VWS V14.01,2013-02-14 05:45:00,
2013-02-14 00:50:00,17.6,12.2,29.86,SSE,164,0.0,0.0,79,0.00,,OVC035,0.00,VWS V14.01,2013-02-14 05:50:00,
2013-02-14 00:55:00,17.6,12.5,29.86,SSE,164,0.0,0.0,80,0.00,,OVC035,0.00,VWS V14.01,2013-02-14 05:55:00,
2013-02-14 01:00:00,17.4,12.3,29.86,SSE,164,0.0,0.0,80,0.00,,OVC035,0.00,VWS V14.01,2013-02-14 06:00:00,
2013-02-14 01:05:00,17.2,12.1,29.86,SSE,164,0.0,0.0,80,0.00,,OVC035,0.00,VWS V14.01,2013-02-14 06:05:00,
2013-02-14 01:10:00,17.1,12.0,29.86,SSE,164,0.0,0.0,80,0.00,,OVC035,0.00,VWS V14.01,2013-02-14 06:10:00,
2013-02-14 01:15:00,16.7,11.6,29.86,SSE,164,0.0,0.0,80,0.00,,OVC035,0.00,VWS V14.01,2013-02-14 06:15:00,
2013-02-14 01:20:00,16.5,11.4,29.86,SSE,164,0.0,0.0,80,0.00,,OVC035,0.00,VWS V14.01,2013-02-14 06:20:00,
2013-02-14 01:25:00,16.5,11.4,29.86,SSE,164,0.0,0.0,80,0.00,,OVC035,0.00,VWS V14.01,2013-02-14 06:25:00,
2013-02-14 01:30:00,16.9,11.8,29.86,SSE,164,0.0,0.0,80,0.00,,OVC035,0.00,VWS V14.01,2013-02-14 06:30:00,
2013-02-14 01:35:00,16.9,11.8,29.86,SSE,164,0.0,0.0,80,0.00,,OVC035,0.00,VWS V14.01,2013-02-14 06:35:00,
2013-02-14 01:40:00,17.1,12.2,29.86,SSE,164,0.0,0.0,81,0.00,,OVC035,0.00,VWS V14.01,2013-02-14 06:40:00,
2013-02-14 01:45:00,16.9,12.1,29.86,SSE,164,0.0,0.0,81,0.00,,OVC035,0.00,VWS V14.01,2013-02-14 06:45:00,
2013-02-14 01:50:00,17.1,12.2,29.86,SSE,164,0.0,0.0,81,0.00,,OVC035,0.00,VWS V14.01,2013-02-14 06:50:00,
2013-02-14 01:55:00,16.9,12.1,29.86,SSE,164,0.0,0.0,81,0.00,,OVC035,0.00,VWS V14.01,2013-02-14 06:55:00,
2013-02-14 02:00:00,16.9,12.1,29.86,SSE,165,0.0,0.0,81,0.00,,OVC035,0.00,VWS V14.01,2013-02-14 07:00:00,
2013-02-14 02:05:00,16.9,12.1,29.86,SSE,164,0.0,0.0,81,0.00,,OVC035,0.00,VWS V14.01,2013-02-14 07:05:00,
2013-02-14 02:10:00,16.9,12.1,29.86,SSE,164,0.0,0.0,81,0.00,,OVC035,0.00,VWS V14.01,2013-02-14 07:10:00,
2013-02-14 02:15:00,17.1,12.2,29.86,SSE,165,0.0,0.0,81,0.00,,OVC035,0.00,VWS V14.01,2013-02-14 07:15:00,
2013-02-14 02:21:00,17.1,12.2,29.86,SSE,164,0.0,0.0,81,0.00,,OVC035,0.00,VWS V14.01,2013-02-14 07:21:00,
2013-02-14 02:26:00,17.2,12.4,29.86,SSE,164,0.0,0.0,81,0.00,,OVC035,0.00,VWS V14.01,2013-02-14 07:26:00,
2013-02-14 02:31:00,17.2,12.4,29.86,SSE,164,0.0,0.0,81,0.00,,OVC035,0.00,VWS V14.01,2013-02-14 07:31:00,
2013-02-14 02:36:00,17.2,12.4,29.86,SSE,164,0.0,0.0,81,0.00,,OVC035,0.00,VWS V14.01,2013-02-14 07:36:00,
2013-02-14 02:41:00,17.2,12.4,29.86,SSE,164,0.0,0.0,81,0.00,,OVC035,0.00,VWS V14.01,2013-02-14 07:41:00,
2013-02-14 02:46:00,17.1,12.2,29.89,SSE,164,0.0,0.0,81,0.00,,OVC035,0.00,VWS V14.01,2013-02-14 07:46:00,
2013-02-14 02:51:00,17.1,12.2,29.89,SSE,164,0.0,0.0,81,0.00,,OVC035,0.00,VWS V14.01,2013-02-14 07:51:00,
2013-02-14 02:55:00,17.4,12.9,29.89,SSE,164,0.0,0.0,82,0.00,,OVC035,0.00,VWS V14.01,2013-02-14 07:55:00,
2013-02-14 03:00:00,17.4,12.9,29.89,SSE,164,0.0,0.0,82,0.00,,OVC035,0.00,VWS V14.01,2013-02-14 08:00:00,
2013-02-14 03:05:00,17.6,13.1,29.89,SSE,164,0.0,0.0,82,0.00,,OVC035,0.00,VWS V14.01,2013-02-14 08:05:00,
2013-02-14 03:10:00,17.8,13.2,29.89,SSE,164,0.0,0.0,82,0.00,,OVC035,0.00,VWS V14.01,2013-02-14 08:10:00,
2013-02-14 03:15:00,18.0,13.4,29.89,SSE,164,0.0,0.0,82,0.00,,OVC035,0.00,VWS V14.01,2013-02-14 08:15:00,
2013-02-14 03:20:00,18.1,13.6,29.89,SSE,164,0.0,0.0,82,0.00,,OVC035,0.00,VWS V14.01,2013-02-14 08:20:00,
2013-02-14 03:25:00,18.1,13.6,29.89,SSE,164,0.0,0.0,82,0.00,,OVC035,0.00,VWS V14.01,2013-02-14 08:25:00,
2013-02-14 03:31:00,18.1,13.6,29.89,SSE,164,0.0,0.0,82,0.00,,OVC035,0.00,VWS V14.01,2013-02-14 08:31:00,
2013-02-14 03:36:00,18.3,13.8,29.89,SSE,164,0.0,0.0,82,0.00,,OVC035,0.00,VWS V14.01,2013-02-14 08:36:00,
2013-02-14 03:41:00,18.3,13.8,29.89,SSE,164,0.0,0.0,82,0.00,,OVC031,0.00,VWS V14.01,2013-02-14 08:41:00,
2013-02-14 03:46:00,18.3,13.8,29.89,SSE,164,0.0,0.0,82,0.00,,OVC031,0.00,VWS V14.01,2013-02-14 08:46:00,
2013-02-14 03:51:00,18.5,13.9,29.89,SSE,164,0.0,0.0,82,0.00,,OVC031,0.00,VWS V14.01,2013-02-14 08:51:00,
2013-02-14 03:56:00,18.5,13.9,29.89,SSE,164,0.0,0.0,82,0.00,,OVC031,0.00,VWS V14.01,2013-02-14 08:56:00,
2013-02-14 04:01:00,18.7,14.1,29.89,SSE,165,0.0,0.0,82,0.00,,OVC031,0.00,VWS V14.01,2013-02-14 09:01:00,
2013-02-14 04:06:00,18.7,14.1,29.89,SSE,165,0.0,0.0,82,0.00,,OVC031,0.00,VWS V14.01,2013-02-14 09:06:00,
2013-02-14 04:11:00,18.9,14.3,29.89,SSE,164,0.0,0.0,82,0.00,,OVC031,0.00,VWS V14.01,2013-02-14 09:11:00,
2013-02-14 04:16:00,19.0,14.7,29.89,SSE,164,0.0,0.0,83,0.00,,OVC031,0.00,VWS V14.01,2013-02-14 09:16:00,
2013-02-14 04:21:00,19.0,14.7,29.89,SSE,164,0.0,0.0,83,0.00,,OVC031,0.00,VWS V14.01,2013-02-14 09:21:00,
2013-02-14 04:26:00,19.0,14.7,29.89,SSE,164,0.0,0.0,83,0.00,,OVC031,0.00,VWS V14.01,2013-02-14 09:26:00,
2013-02-14 04:31:00,19.2,14.9,29.92,SSE,164,0.0,0.0,83,0.00,,OVC031,0.00,VWS V14.01,2013-02-14 09:31:00,
2013-02-14 04:36:00,19.2,14.9,29.92,SSE,164,0.0,0.0,83,0.00,,OVC031,0.00,VWS V14.01,2013-02-14 09:36:00,
2013-02-14 04:41:00,19.2,14.9,29.92,SSE,164,0.0,0.0,83,0.00,,OVC029,0.00,VWS V14.01,2013-02-14 09:41:00,
2013-02-14 04:46:00,19.2,14.9,29.92,SSE,164,0.0,0.0,83,0.00,,OVC029,0.00,VWS V14.01,2013-02-14 09:46:00,
2013-02-14 04:51:00,19.2,14.9,29.92,SSE,165,0.0,0.0,83,0.00,,OVC029,0.00,VWS V14.01,2013-02-14 09:51:00,
2013-02-14 04:56:00,19.4,15.1,29.92,SSE,164,0.0,0.0,83,0.00,,OVC029,0.00,VWS V14.01,2013-02-14 09:56:00,
2013-02-14 05:01:00,19.4,15.1,29.92,SSE,164,0.0,0.0,83,0.00,,OVC029,0.00,VWS V14.01,2013-02-14 10:01:00,
2013-02-14 05:06:00,19.4,15.4,29.92,SSE,164,0.0,0.0,84,0.00,,OVC029,0.00,VWS V14.01,2013-02-14 10:06:00,
2013-02-14 05:11:00,19.6,15.3,29.92,SSE,164,0.0,0.0,83,0.00,,OVC029,0.00,VWS V14.01,2013-02-14 10:11:00,
2013-02-14 05:16:00,19.6,15.3,29.92,SSE,164,0.0,0.0,83,0.00,,OVC029,0.00,VWS V14.01,2013-02-14 10:16:00,
2013-02-14 05:21:00,19.6,15.3,29.92,SSE,164,0.0,0.0,83,0.00,,OVC029,0.00,VWS V14.01,2013-02-14 10:21:00,
2013-02-14 05:26:00,19.6,15.5,29.92,SSE,164,0.0,0.0,84,0.00,,OVC029,0.00,VWS V14.01,2013-02-14 10:26:00,
2013-02-14 05:31:00,19.6,15.5,29.92,SSE,164,0.0,0.0,84,0.00,,OVC029,0.00,VWS V14.01,2013-02-14 10:31:00,
2013-02-14 05:36:00,19.6,15.5,29.92,SSE,164,0.0,0.0,84,0.00,,OVC029,0.00,VWS V14.01,2013-02-14 10:36:00,
2013-02-14 05:41:00,19.8,15.7,29.92,SSE,164,0.0,0.0,84,0.00,,OVC029,0.00,VWS V14.01,2013-02-14 10:41:00,
2013-02-14 05:46:00,19.8,15.7,29.92,SSE,164,0.0,0.0,84,0.00,,OVC029,0.00,VWS V14.01,2013-02-14 10:46:00,
2013-02-14 05:51:00,19.8,15.7,29.92,SSE,164,0.0,0.0,84,0.00,,OVC029,0.00,VWS V14.01,2013-02-14 10:51:00,
2013-02-14 05:56:00,19.8,15.7,29.92,SSE,164,0.0,0.0,84,0.00,,OVC029,0.00,VWS V14.01,2013-02-14 10:56:00,
2013-02-14 06:01:00,19.8,15.7,29.92,SSE,164,0.0,0.0,84,0.00,,OVC029,0.00,VWS V14.01,2013-02-14 11:01:00,
2013-02-14 06:06:00,19.8,15.7,29.92,SSE,164,0.0,0.0,84,0.00,,OVC029,0.00,VWS V14.01,2013-02-14 11:06:00,
2013-02-14 06:11:00,19.8,15.7,29.92,SSE,164,0.0,0.0,84,0.00,,OVC029,0.00,VWS V14.01,2013-02-14 11:11:00,
2013-02-14 06:16:00,19.9,15.9,29.92,SSE,164,0.0,0.0,84,0.00,,OVC029,0.00,VWS V14.01,2013-02-14 11:16:00,
2013-02-14 06:21:00,19.9,15.9,29.92,SSE,164,0.0,0.0,84,0.00,,OVC029,0.00,VWS V14.01,2013-02-14 11:21:00,
2013-02-14 06:26:00,19.9,16.2,29.92,SSE,164,0.0,0.0,85,0.00,,OVC029,0.00,VWS V14.01,2013-02-14 11:26:00,
2013-02-14 06:31:00,19.9,16.2,29.92,SSE,164,0.0,0.0,85,0.00,,OVC029,0.00,VWS V14.01,2013-02-14 11:31:00,
2013-02-14 06:36:00,19.9,16.2,29.92,SSE,164,0.0,0.0,85,0.00,,OVC029,0.00,VWS V14.01,2013-02-14 11:36:00,
2013-02-14 06:41:00,19.9,16.2,29.92,SSE,164,0.0,0.0,85,0.00,,OVC027,0.00,VWS V14.01,2013-02-14 11:41:00,
2013-02-14 06:46:00,19.9,16.2,29.92,SSE,164,0.0,0.0,85,0.00,,OVC027,0.00,VWS V14.01,2013-02-14 11:46:00,
2013-02-14 06:51:00,19.9,16.2,29.92,SSE,164,0.0,0.0,85,0.00,,OVC027,0.00,VWS V14.01,2013-02-14 11:51:00,
2013-02-14 06:56:00,19.9,16.2,29.95,SSE,164,0.0,0.0,85,0.00,,OVC027,0.00,VWS V14.01,2013-02-14 11:56:00,
2013-02-14 07:02:00,20.1,16.3,29.95,SSE,164,0.0,0.0,85,0.00,,OVC027,0.00,VWS V14.01,2013-02-14 12:02:00,
2013-02-14 07:07:00,20.1,16.3,29.95,SSE,164,0.0,0.0,85,0.00,,OVC027,0.00,VWS V14.01,2013-02-14 12:07:00,
2013-02-14 07:12:00,20.1,16.3,29.95,SSE,164,0.0,0.0,85,0.00,,OVC027,0.00,VWS V14.01,2013-02-14 12:12:00,
2013-02-14 07:17:00,20.1,16.3,29.95,SSE,164,0.0,0.0,85,0.00,,OVC027,0.00,VWS V14.01,2013-02-14 12:17:00,
2013-02-14 07:22:00,20.1,16.3,29.95,SSE,164,0.0,0.0,85,0.00,,OVC027,0.00,VWS V14.01,2013-02-14 12:22:00,
2013-02-14 07:27:00,20.3,16.5,29.95,SSE,164,0.0,0.0,85,0.00,,OVC027,0.00,VWS V14.01,2013-02-14 12:27:00,
2013-02-14 07:32:00,20.3,16.5,29.95,SSE,164,0.0,0.0,85,0.00,,OVC027,0.00,VWS V14.01,2013-02-14 12:32:00,
2013-02-14 07:37:00,20.3,16.8,29.95,SSE,164,0.0,0.0,86,0.00,,OVC027,0.00,VWS V14.01,2013-02-14 12:37:00,
2013-02-14 07:42:00,20.5,17.0,29.95,SSE,164,0.0,0.0,86,0.00,,OVC027,0.00,VWS V14.01,2013-02-14 12:42:00,
2013-02-14 07:47:00,20.5,17.0,29.95,SSE,164,0.0,0.0,86,0.00,,OVC027,0.00,VWS V14.01,2013-02-14 12:47:00,
2013-02-14 07:52:00,20.7,17.1,29.95,SSE,164,0.0,0.0,86,0.00,,OVC027,0.00,VWS V14.01,2013-02-14 12:52:00,
2013-02-14 07:57:00,20.7,17.1,29.95,SSE,164,0.0,0.0,86,0.00,,OVC027,0.00,VWS V14.01,2013-02-14 12:57:00,
2013-02-14 08:02:00,20.8,17.3,29.98,SSE,164,0.0,0.0,86,0.00,,OVC027,0.00,VWS V14.01,2013-02-14 13:02:00,
2013-02-14 08:07:00,21.0,17.5,29.98,SSE,164,0.0,0.0,86,0.00,,OVC027,0.00,VWS V14.01,2013-02-14 13:07:00,
2013-02-14 08:12:00,21.0,17.5,29.98,SSE,164,0.0,0.0,86,0.00,,OVC027,0.00,VWS V14.01,2013-02-14 13:12:00,
2013-02-14 08:17:00,21.2,17.9,29.98,SSE,164,0.0,0.0,87,0.00,,OVC027,0.00,VWS V14.01,2013-02-14 13:17:00,
2013-02-14 08:22:00,21.2,17.9,29.98,SSE,164,0.0,0.0,87,0.00,,OVC027,0.00,VWS V14.01,2013-02-14 13:22:00,
2013-02-14 08:27:00,21.6,18.3,29.98,SSE,164,0.0,0.0,87,0.00,,OVC027,0.00,VWS V14.01,2013-02-14 13:27:00,
2013-02-14 08:32:00,21.9,18.6,29.98,SSE,164,0.0,0.0,87,0.00,,OVC027,0.00,VWS V14.01,2013-02-14 13:32:00,
2013-02-14 08:37:00,21.9,18.6,29.98,SSE,164,0.0,0.0,87,0.00,,OVC027,0.00,VWS V14.01,2013-02-14 13:37:00,
2013-02-14 08:42:00,22.3,19.0,29.98,SSE,164,0.0,0.0,87,0.00,,OVC027,0.00,VWS V14.01,2013-02-14 13:42:00,
2013-02-14 08:47:00,22.5,19.2,29.98,SSE,164,0.0,0.0,87,0.00,,OVC027,0.00,VWS V14.01,2013-02-14 13:47:00,
2013-02-14 08:52:00,23.2,19.9,29.98,SSE,164,0.0,0.0,87,0.00,,OVC027,0.00,VWS V14.01,2013-02-14 13:52:00,
2013-02-14 08:57:00,23.2,19.9,29.98,SSE,164,0.0,0.0,87,0.00,,OVC027,0.00,VWS V14.01,2013-02-14 13:57:00,
2013-02-14 09:02:00,23.5,20.2,29.98,SSE,164,0.0,0.0,87,0.00,,OVC027,0.00,VWS V14.01,2013-02-14 14:02:00,
2013-02-14 09:07:00,23.9,20.9,29.98,SSE,164,0.0,0.0,88,0.00,,OVC027,0.00,VWS V14.01,2013-02-14 14:07:00,
2013-02-14 09:12:00,23.9,20.9,29.98,SSE,164,0.0,0.0,88,0.00,,OVC027,0.00,VWS V14.01,2013-02-14 14:12:00,
2013-02-14 09:17:00,24.4,21.4,29.98,SSE,164,0.0,0.0,88,0.00,,OVC027,0.00,VWS V14.01,2013-02-14 14:17:00,
2013-02-14 09:22:00,24.4,21.4,29.98,SSE,165,0.0,0.0,88,0.00,,OVC027,0.00,VWS V14.01,2013-02-14 14:22:00,
2013-02-14 09:27:00,25.0,21.7,29.98,SSE,164,0.0,0.0,87,0.00,,OVC027,0.00,VWS V14.01,2013-02-14 14:27:00,
2013-02-14 09:32:00,25.0,21.7,29.98,SSE,164,0.0,0.0,87,0.00,,OVC027,0.00,VWS V14.01,2013-02-14 14:32:00,
2013-02-14 09:37:00,26.1,23.0,29.98,South,173,0.0,0.0,88,0.00,,OVC027,0.00,VWS V14.01,2013-02-14 14:37:00,
2013-02-14 09:42:00,26.2,23.2,29.98,South,173,0.0,0.0,88,0.00,,OVC025,0.00,VWS V14.01,2013-02-14 14:42:00,
2013-02-14 09:47:00,26.2,23.2,29.98,SSE,152,0.0,0.0,88,0.00,,OVC025,0.00,VWS V14.01,2013-02-14 14:47:00,
2013-02-14 09:52:00,26.6,23.3,29.98,South,173,0.0,0.0,87,0.00,,OVC025,0.00,VWS V14.01,2013-02-14 14:52:00,
2013-02-14 09:57:00,26.6,23.3,29.98,South,181,0.0,0.0,87,0.00,,OVC025,0.00,VWS V14.01,2013-02-14 14:57:00,
2013-02-14 10:02:00,27.3,23.7,29.98,South,170,0.0,0.0,86,0.00,,OVC025,0.00,VWS V14.01,2013-02-14 15:02:00,
2013-02-14 10:07:00,27.3,23.7,29.98,SSE,167,0.0,0.0,86,0.00,,OVC025,0.00,VWS V14.01,2013-02-14 15:07:00,
2013-02-14 10:12:00,27.3,23.7,29.98,South,178,0.0,0.0,86,0.00,,OVC025,0.00,VWS V14.01,2013-02-14 15:12:00,
2013-02-14 10:17:00,27.3,23.7,29.98,SSE,168,3.1,3.1,86,0.00,,OVC025,0.00,VWS V14.01,2013-02-14 15:17:00,
2013-02-14 10:22:00,27.3,23.7,29.98,SSE,166,4.9,4.9,86,0.00,,OVC025,0.00,VWS V14.01,2013-02-14 15:22:00,
2013-02-14 10:27:00,28.0,23.8,30.01,South,170,2.2,2.2,84,0.00,,OVC025,0.00,VWS V14.01,2013-02-14 15:27:00,
2013-02-14 10:32:00,28.0,23.8,30.01,SE,145,2.2,2.7,84,0.00,,OVC025,0.00,VWS V14.01,2013-02-14 15:32:00,
2013-02-14 10:37:00,28.0,23.8,30.01,SSE,166,2.7,2.7,84,0.00,,OVC025,0.00,VWS V14.01,2013-02-14 15:37:00,
2013-02-14 10:42:00,28.0,23.0,30.01,South,182,0.0,0.0,81,0.00,,OVC025,0.00,VWS V14.01,2013-02-14 15:42:00,
2013-02-14 10:47:00,28.6,22.9,30.01,SW,219,0.0,0.0,79,0.00,,OVC025,0.00,VWS V14.01,2013-02-14 15:47:00,
2013-02-14 10:52:00,28.6,22.9,30.01,South,174,0.0,0.0,79,0.00,,OVC025,0.00,VWS V14.01,2013-02-14 15:52:00,
2013-02-14 10:57:00,28.6,22.6,30.01,SW,218,0.0,0.0,78,0.00,,OVC025,0.00,VWS V14.01,2013-02-14 15:57:00,
2013-02-14 11:02:00,28.6,22.6,30.01,SW,220,0.0,0.0,78,0.00,,OVC025,0.00,VWS V14.01,2013-02-14 16:02:00,
2013-02-14 11:07:00,28.6,22.6,30.01,SSE,148,0.0,0.0,78,0.00,,OVC025,0.00,VWS V14.01,2013-02-14 16:07:00,
2013-02-14 11:12:00,29.5,22.5,30.01,South,191,2.7,3.1,75,0.00,,OVC025,0.00,VWS V14.01,2013-02-14 16:12:00,
2013-02-14 11:17:00,29.5,22.5,30.01,SW,234,0.0,0.0,75,0.00,,OVC025,0.00,VWS V14.01,2013-02-14 16:17:00,
2013-02-14 11:22:00,29.5,22.5,30.01,SW,218,0.0,0.0,75,0.00,,OVC025,0.00,VWS V14.01,2013-02-14 16:22:00,
2013-02-14 11:27:00,30.2,20.9,30.01,WSW,242,3.1,4.0,68,0.00,,OVC025,0.00,VWS V14.01,2013-02-14 16:27:00,
2013-02-14 11:32:00,30.2,20.9,30.01,SW,233,0.0,0.0,68,0.00,,OVC025,0.00,VWS V14.01,2013-02-14 16:32:00,
2013-02-14 11:37:00,30.4,18.2,30.01,South,176,2.7,2.7,60,0.00,,OVC025,0.00,VWS V14.01,2013-02-14 16:37:00,
2013-02-14 11:42:00,30.4,18.2,30.01,North,357,0.0,0.0,60,0.00,,OVC025,0.00,VWS V14.01,2013-02-14 16:42:00,
2013-02-14 11:47:00,30.4,18.2,30.01,SW,221,0.0,4.0,60,0.00,,OVC025,0.00,VWS V14.01,2013-02-14 16:47:00,
2013-02-14 11:52:00,30.4,18.2,30.01,South,177,2.7,2.7,60,0.00,,OVC025,0.00,VWS V14.01,2013-02-14 16:52:00,
2013-02-14 11:57:00,32.5,16.4,30.01,WSW,243,0.0,0.0,51,0.00,,OVC025,0.00,VWS V14.01,2013-02-14 16:57:00,
2013-02-14 12:02:00,32.5,16.4,30.01,West,266,3.1,4.0,51,0.00,,OVC025,0.00,VWS V14.01,2013-02-14 17:02:00,
2013-02-14 12:07:00,32.5,16.4,30.01,SSW,211,0.0,0.0,51,0.00,,OVC025,0.00,VWS V14.01,2013-02-14 17:07:00,
2013-02-14 12:12:00,32.5,16.4,30.01,SW,226,3.1,3.1,51,0.00,,OVC025,0.00,VWS V14.01,2013-02-14 17:12:00,
2013-02-14 12:17:00,32.5,16.4,30.01,SSE,163,2.2,2.2,51,0.00,,OVC025,0.00,VWS V14.01,2013-02-14 17:17:00,
2013-02-14 12:22:00,32.5,16.4,30.01,SW,220,3.1,3.1,51,0.00,,OVC025,0.00,VWS V14.01,2013-02-14 17:22:00,
2013-02-14 12:27:00,32.5,16.4,30.01,WSW,249,2.7,2.7,51,0.00,,OVC025,0.00,VWS V14.01,2013-02-14 17:27:00,
2013-02-14 12:32:00,32.5,16.4,30.01,South,173,5.4,5.4,51,0.00,,OVC025,0.00,VWS V14.01,2013-02-14 17:32:00,
2013-02-14 12:37:00,32.5,16.4,30.01,South,172,3.1,3.1,51,0.00,,OVC025,0.00,VWS V14.01,2013-02-14 17:37:00,
2013-02-14 12:42:00,32.5,16.4,30.01,South,179,2.7,2.7,51,0.00,,OVC027,0.00,VWS V14.01,2013-02-14 17:42:00,
2013-02-14 12:47:00,31.1,13.7,29.98,SSE,155,0.0,0.0,48,0.00,,OVC027,0.00,VWS V14.01,2013-02-14 17:47:00,
2013-02-14 12:52:00,31.1,13.7,29.98,NNE,12,0.0,0.0,48,0.00,,OVC027,0.00,VWS V14.01,2013-02-14 17:52:00,
2013-02-14 12:57:00,31.1,13.7,29.98,SW,233,0.0,0.0,48,0.00,,OVC027,0.00,VWS V14.01,2013-02-14 17:57:00,
2013-02-14 13:03:00,31.1,13.7,29.98,South,173,4.0,4.0,48,0.00,,OVC027,0.00,VWS V14.01,2013-02-14 18:03:00,
2013-02-14 13:08:00,31.1,13.7,29.98,SSE,161,3.6,3.6,48,0.00,,OVC027,0.00,VWS V14.01,2013-02-14 18:08:00,
2013-02-14 13:13:00,31.1,13.7,29.98,SSW,195,0.0,0.0,48,0.00,,OVC027,0.00,VWS V14.01,2013-02-14 18:13:00,
2013-02-14 13:18:00,31.1,13.7,29.98,South,182,0.0,0.0,48,0.00,,OVC027,0.00,VWS V14.01,2013-02-14 18:18:00,
2013-02-14 13:23:00,31.1,13.7,29.98,SSE,151,4.0,4.0,48,0.00,,OVC027,0.00,VWS V14.01,2013-02-14 18:23:00,
2013-02-14 13:28:00,31.1,13.7,29.98,SSE,168,4.0,4.0,48,0.00,,OVC027,0.00,VWS V14.01,2013-02-14 18:28:00,
2013-02-14 13:33:00,31.1,13.7,29.98,SW,230,2.7,2.7,48,0.00,,OVC027,0.00,VWS V14.01,2013-02-14 18:33:00,
2013-02-14 13:38:00,31.1,13.7,29.98,SSE,159,2.2,2.2,48,0.00,,OVC027,0.00,VWS V14.01,2013-02-14 18:38:00,
2013-02-14 13:43:00,31.1,13.7,29.98,South,180,0.0,0.0,48,0.00,,OVC025,0.00,VWS V14.01,2013-02-14 18:43:00,
2013-02-14 13:48:00,31.1,13.7,29.98,WSW,244,0.0,0.0,48,0.00,,OVC025,0.00,VWS V14.01,2013-02-14 18:48:00,
2013-02-14 13:53:00,34.2,14.5,29.98,WSW,252,0.0,0.0,44,0.00,,OVC025,0.00,VWS V14.01,2013-02-14 18:53:00,
2013-02-14 13:58:00,34.7,15.6,29.98,West,268,0.0,0.0,45,0.00,,OVC025,0.00,VWS V14.01,2013-02-14 18:58:00,
2013-02-14 14:03:00,34.7,15.6,29.98,WNW,300,0.0,0.0,45,0.00,,OVC025,0.00,VWS V14.01,2013-02-14 19:03:00,
2013-02-14 14:08:00,34.7,15.6,29.98,South,179,0.0,0.0,45,0.00,,OVC025,0.00,VWS V14.01,2013-02-14 19:08:00,
2013-02-14 14:13:00,34.7,15.6,29.98,South,177,2.7,3.6,45,0.00,,OVC025,0.00,VWS V14.01,2013-02-14 19:13:00,
2013-02-14 14:18:00,36.3,16.0,29.95,SSE,167,0.0,0.0,43,0.00,,OVC025,0.00,VWS V14.01,2013-02-14 19:18:00,
2013-02-14 14:23:00,36.3,16.0,29.95,SSE,161,0.0,0.0,43,0.00,,OVC025,0.00,VWS V14.01,2013-02-14 19:23:00,
2013-02-14 14:28:00,36.3,16.0,29.95,South,170,4.0,4.0,43,0.00,,OVC025,0.00,VWS V14.01,2013-02-14 19:28:00,
2013-02-14 14:33:00,36.3,16.0,29.95,SSE,162,2.2,2.2,43,0.00,,OVC025,0.00,VWS V14.01,2013-02-14 19:33:00,
2013-02-14 14:38:00,36.3,16.0,29.95,South,179,3.1,3.1,43,0.00,,OVC025,0.00,VWS V14.01,2013-02-14 19:38:00,
2013-02-14 14:43:00,36.1,15.3,29.95,SE,146,2.7,3.6,42,0.00,,,0.00,VWS V14.01,2013-02-14 19:43:00,
2013-02-14 14:48:00,36.1,15.3,29.95,South,169,4.9,4.9,42,0.00,,,0.00,VWS V14.01,2013-02-14 19:48:00,
2013-02-14 14:53:00,36.1,15.3,29.95,SSE,155,2.2,3.1,42,0.00,,,0.00,VWS V14.01,2013-02-14 19:53:00,
2013-02-14 14:58:00,36.1,15.3,29.95,SSE,156,3.6,3.6,42,0.00,,,0.00,VWS V14.01,2013-02-14 19:58:00,
2013-02-14 15:03:00,36.1,15.3,29.95,SSE,162,0.0,0.0,42,0.00,,,0.00,VWS V14.01,2013-02-14 20:03:00,
2013-02-14 15:08:00,35.1,14.8,29.95,SE,145,3.6,3.6,43,0.00,,,0.00,VWS V14.01,2013-02-14 20:08:00,
2013-02-14 15:13:00,35.1,14.8,29.95,SSE,164,3.6,3.6,43,0.00,,BKN027,0.00,VWS V14.01,2013-02-14 20:13:00,
2013-02-14 15:18:00,35.1,14.8,29.95,South,170,3.6,3.6,43,0.00,,BKN027,0.00,VWS V14.01,2013-02-14 20:18:00,
2013-02-14 15:23:00,35.1,14.8,29.95,South,175,3.1,3.1,43,0.00,,BKN027,0.00,VWS V14.01,2013-02-14 20:23:00,
2013-02-14 15:28:00,35.1,14.8,29.95,South,170,2.7,2.7,43,0.00,,BKN027,0.00,VWS V14.01,2013-02-14 20:28:00,
2013-02-14 15:33:00,35.1,14.8,29.95,SSE,162,0.0,0.0,43,0.00,,BKN027,0.00,VWS V14.01,2013-02-14 20:33:00,
2013-02-14 15:38:00,35.1,14.8,29.95,SSE,149,4.0,4.0,43,0.00,,BKN027,0.00,VWS V14.01,2013-02-14 20:38:00,
2013-02-14 15:43:00,35.1,14.8,29.95,SSE,165,2.7,2.7,43,0.00,,CLR,0.00,VWS V14.01,2013-02-14 20:43:00,
2013-02-14 15:48:00,34.9,14.7,29.95,SSE,162,0.0,0.0,43,0.00,,CLR,0.00,VWS V14.01,2013-02-14 20:48:00,
2013-02-14 15:53:00,34.9,14.7,29.95,SSE,155,0.0,0.0,43,0.00,,CLR,0.00,VWS V14.01,2013-02-14 20:53:00,
2013-02-14 15:58:00,34.9,14.7,29.95,South,182,4.9,4.9,43,0.00,,CLR,0.00,VWS V14.01,2013-02-14 20:58:00,
2013-02-14 16:03:00,34.9,14.7,29.95,SSE,159,3.6,3.6,43,0.00,,CLR,0.00,VWS V14.01,2013-02-14 21:03:00,
2013-02-14 16:08:00,34.9,14.7,29.95,South,181,3.6,3.6,43,0.00,,CLR,0.00,VWS V14.01,2013-02-14 21:08:00,
2013-02-14 16:13:00,34.9,14.7,29.95,SSE,156,3.6,3.6,43,0.00,,CLR,0.00,VWS V14.01,2013-02-14 21:13:00,
2013-02-14 16:18:00,34.2,14.0,29.95,SSE,148,3.1,3.1,43,0.00,,CLR,0.00,VWS V14.01,2013-02-14 21:18:00,
2013-02-14 16:23:00,34.2,14.0,29.95,SSE,163,2.2,3.1,43,0.00,,CLR,0.00,VWS V14.01,2013-02-14 21:23:00,
2013-02-14 16:28:00,34.2,14.0,29.95,SSE,155,2.7,2.7,43,0.00,,CLR,0.00,VWS V14.01,2013-02-14 21:28:00,
2013-02-14 16:33:00,34.2,14.0,29.95,SSE,156,2.7,2.7,43,0.00,,CLR,0.00,VWS V14.01,2013-02-14 21:33:00,
2013-02-14 16:38:00,34.2,14.0,29.95,SSE,165,0.0,0.0,43,0.00,,CLR,0.00,VWS V14.01,2013-02-14 21:38:00,
2013-02-14 16:43:00,32.9,13.4,29.95,SSE,165,0.0,0.0,44,0.00,,CLR,0.00,VWS V14.01,2013-02-14 21:43:00,
2013-02-14 16:48:00,32.9,13.4,29.95,SSE,165,0.0,0.0,44,0.00,,CLR,0.00,VWS V14.01,2013-02-14 21:48:00,
2013-02-14 16:53:00,32.9,13.4,29.95,SSE,165,0.0,0.0,44,0.00,,CLR,0.00,VWS V14.01,2013-02-14 21:53:00,
2013-02-14 16:58:00,32.9,13.4,29.95,SSE,165,0.0,0.0,44,0.00,,CLR,0.00,VWS V14.01,2013-02-14 21:58:00,
2013-02-14 17:03:00,29.1,12.8,29.98,SSE,165,0.0,0.0,50,0.00,,CLR,0.00,VWS V14.01,2013-02-14 22:03:00,
2013-02-14 17:08:00,29.1,12.8,29.98,SSE,165,0.0,0.0,50,0.00,,CLR,0.00,VWS V14.01,2013-02-14 22:08:00,
2013-02-14 17:13:00,29.1,12.8,29.98,SSE,165,0.0,0.0,50,0.00,,CLR,0.00,VWS V14.01,2013-02-14 22:13:00,
2013-02-14 17:18:00,29.1,12.8,29.98,SSE,165,0.0,0.0,50,0.00,,CLR,0.00,VWS V14.01,2013-02-14 22:18:00,
2013-02-14 17:23:00,29.1,12.8,29.98,SSE,165,0.0,0.0,50,0.00,,CLR,0.00,VWS V14.01,2013-02-14 22:23:00,
2013-02-14 17:28:00,28.6,14.9,29.98,SSE,165,0.0,0.0,56,0.00,,CLR,0.00,VWS V14.01,2013-02-14 22:28:00,
2013-02-14 17:33:00,28.6,14.9,29.98,SSE,165,0.0,0.0,56,0.00,,CLR,0.00,VWS V14.01,2013-02-14 22:33:00,
2013-02-14 17:38:00,28.6,14.9,29.98,SSE,165,0.0,0.0,56,0.00,,CLR,0.00,VWS V14.01,2013-02-14 22:38:00,
2013-02-14 17:43:00,28.2,15.4,29.98,SSE,165,0.0,0.0,58,0.00,,SCT095,0.00,VWS V14.01,2013-02-14 22:43:00,
2013-02-14 17:48:00,28.2,15.4,29.98,SSE,165,0.0,0.0,58,0.00,,SCT095,0.00,VWS V14.01,2013-02-14 22:48:00,
2013-02-14 17:53:00,28.0,15.6,29.98,SSE,165,0.0,0.0,59,0.00,,SCT095,0.00,VWS V14.01,2013-02-14 22:53:00,
2013-02-14 17:58:00,28.0,15.6,29.98,SSE,165,0.0,0.0,59,0.00,,SCT095,0.00,VWS V14.01,2013-02-14 22:58:00,
2013-02-14 18:03:00,28.0,15.6,29.98,SSE,165,0.0,0.0,59,0.00,,SCT095,0.00,VWS V14.01,2013-02-14 23:03:00,
2013-02-14 18:08:00,28.0,15.6,29.98,SSE,165,0.0,0.0,59,0.00,,SCT095,0.00,VWS V14.01,2013-02-14 23:08:00,
2013-02-14 18:13:00,27.9,16.5,29.98,SSE,165,0.0,0.0,62,0.00,,SCT095,0.00,VWS V14.01,2013-02-14 23:13:00,
2013-02-14 18:18:00,27.9,16.5,29.98,SSE,165,0.0,0.0,62,0.00,,SCT095,0.00,VWS V14.01,2013-02-14 23:18:00,
2013-02-14 18:23:00,27.9,16.5,29.98,SSE,165,0.0,0.0,62,0.00,,SCT095,0.00,VWS V14.01,2013-02-14 23:23:00,
2013-02-14 18:28:00,27.9,16.5,29.98,SSE,165,0.0,0.0,62,0.00,,SCT095,0.00,VWS V14.01,2013-02-14 23:28:00,
2013-02-14 18:33:00,27.9,16.5,29.98,SSE,165,0.0,0.0,62,0.00,,SCT095,0.00,VWS V14.01,2013-02-14 23:33:00,
2013-02-14 18:38:00,27.3,17.1,29.98,SSE,165,0.0,0.0,65,0.00,,SCT095,0.00,VWS V14.01,2013-02-14 23:38:00,
2013-02-14 18:43:00,27.1,17.0,29.98,SSE,165,0.0,0.0,65,0.00,,BKN090,0.00,VWS V14.01,2013-02-14 23:43:00,
2013-02-14 18:48:00,27.1,17.0,29.98,SSE,165,0.0,0.0,65,0.00,,BKN090,0.00,VWS V14.01,2013-02-14 23:48:00,
2013-02-14 18:53:00,27.1,17.0,29.98,SSE,165,0.0,0.0,65,0.00,,BKN090,0.00,VWS V14.01,2013-02-14 23:53:00,
2013-02-14 18:58:00,27.1,17.0,29.98,SSE,165,0.0,0.0,65,0.00,,BKN090,0.00,VWS V14.01,2013-02-14 23:58:00,
2013-02-14 19:03:00,27.1,17.0,29.98,SSE,165,0.0,0.0,65,0.00,,BKN090,0.00,VWS V14.01,2013-02-15 00:03:00,
2013-02-14 19:08:00,27.1,17.0,29.98,SSE,165,0.0,0.0,65,0.00,,BKN090,0.00,VWS V14.01,2013-02-15 00:08:00,
2013-02-14 19:13:00,27.1,17.0,29.98,SSE,165,0.0,0.0,65,0.00,,BKN090,0.00,VWS V14.01,2013-02-15 00:13:00,
2013-02-14 19:18:00,27.1,17.0,29.98,SSE,165,0.0,0.0,65,0.00,,BKN090,0.00,VWS V14.01,2013-02-15 00:18:00,
2013-02-14 19:23:00,26.6,18.1,29.98,SSE,165,0.0,0.0,70,0.00,,BKN090,0.00,VWS V14.01,2013-02-15 00:23:00,
2013-02-14 19:28:00,26.6,18.1,29.98,SSE,165,0.0,0.0,70,0.00,,BKN090,0.00,VWS V14.01,2013-02-15 00:28:00,
2013-02-14 19:33:00,26.6,18.1,29.98,SSE,165,0.0,0.0,70,0.00,,BKN090,0.00,VWS V14.01,2013-02-15 00:33:00,
2013-02-14 19:38:00,26.6,18.1,29.98,SSE,165,0.0,0.0,70,0.00,,BKN090,0.00,VWS V14.01,2013-02-15 00:38:00,
2013-02-14 19:43:00,26.6,18.1,29.98,SSE,165,0.0,0.0,70,0.00,,BKN090,0.00,VWS V14.01,2013-02-15 00:43:00,
2013-02-14 19:48:00,26.6,18.1,29.98,SSE,165,0.0,0.0,70,0.00,,BKN090,0.00,VWS V14.01,2013-02-15 00:48:00,
2013-02-14 19:53:00,26.6,18.1,29.98,SSE,165,0.0,0.0,70,0.00,,BKN090,0.00,VWS V14.01,2013-02-15 00:53:00,
2013-02-14 19:58:00,26.6,18.1,29.98,SSE,165,0.0,0.0,70,0.00,,BKN090,0.00,VWS V14.01,2013-02-15 00:58:00,
2013-02-14 20:03:00,26.6,18.1,29.98,SSE,165,0.0,0.0,70,0.00,,BKN090,0.00,VWS V14.01,2013-02-15 01:03:00,
2013-02-14 20:08:00,26.6,18.1,29.98,SSE,165,0.0,0.0,70,0.00,,BKN090,0.00,VWS V14.01,2013-02-15 01:08:00,
2013-02-14 20:13:00,26.6,19.1,29.98,SSE,165,0.0,0.0,73,0.00,,BKN090,0.00,VWS V14.01,2013-02-15 01:13:00,
2013-02-14 20:18:00,26.6,19.4,29.98,SSE,165,0.0,0.0,74,0.00,,BKN090,0.00,VWS V14.01,2013-02-15 01:18:00,
2013-02-14 20:23:00,26.6,19.4,29.98,SSE,165,0.0,0.0,74,0.00,,BKN090,0.00,VWS V14.01,2013-02-15 01:23:00,
2013-02-14 20:28:00,26.6,19.4,29.98,SSE,165,0.0,0.0,74,0.00,,BKN090,0.00,VWS V14.01,2013-02-15 01:28:00,
2013-02-14 20:33:00,26.6,19.4,29.98,SSE,165,0.0,0.0,74,0.00,,BKN090,0.00,VWS V14.01,2013-02-15 01:33:00,
2013-02-14 20:38:00,26.2,19.1,29.98,SSE,165,0.0,0.0,74,0.00,,BKN090,0.00,VWS V14.01,2013-02-15 01:38:00,
2013-02-14 20:43:00,26.2,19.1,29.98,SSE,165,0.0,0.0,74,0.00,,OVC060,0.00,VWS V14.01,2013-02-15 01:43:00,
2013-02-14 20:48:00,26.2,19.1,29.98,SSE,165,0.0,0.0,74,0.00,,OVC060,0.00,VWS V14.01,2013-02-15 01:48:00,
2013-02-14 20:53:00,26.2,19.1,29.98,SSE,165,0.0,0.0,74,0.00,,OVC060,0.00,VWS V14.01,2013-02-15 01:53:00,
2013-02-14 20:58:00,26.2,19.7,29.98,SSE,165,0.0,0.0,76,0.00,,OVC060,0.00,VWS V14.01,2013-02-15 01:58:00,
2013-02-14 21:03:00,26.2,19.7,29.98,SSE,165,0.0,0.0,76,0.00,,OVC060,0.00,VWS V14.01,2013-02-15 02:03:00,
2013-02-14 21:08:00,26.2,19.7,29.98,SSE,165,0.0,0.0,76,0.00,,OVC060,0.00,VWS V14.01,2013-02-15 02:08:00,
2013-02-14 21:13:00,26.2,19.7,29.98,SSE,165,0.0,0.0,76,0.00,,OVC060,0.00,VWS V14.01,2013-02-15 02:13:00,
2013-02-14 21:18:00,26.2,19.7,29.98,SSE,165,0.0,0.0,76,0.00,,OVC060,0.00,VWS V14.01,2013-02-15 02:18:00,
2013-02-14 21:23:00,26.2,19.7,29.98,SSE,165,0.0,0.0,76,0.00,,OVC060,0.00,VWS V14.01,2013-02-15 02:23:00,
2013-02-14 21:29:00,26.2,19.7,29.98,SSE,165,0.0,0.0,76,0.00,,OVC060,0.00,VWS V14.01,2013-02-15 02:29:00,
2013-02-14 21:34:00,26.2,20.0,29.98,SSE,165,0.0,0.0,77,0.00,,OVC060,0.00,VWS V14.01,2013-02-15 02:34:00,
2013-02-14 21:39:00,26.2,20.0,29.98,SSE,165,0.0,0.0,77,0.00,,OVC060,0.00,VWS V14.01,2013-02-15 02:39:00,
2013-02-14 21:44:00,26.4,20.5,29.98,SSE,165,0.0,0.0,78,0.00,,OVC100,0.00,VWS V14.01,2013-02-15 02:44:00,
2013-02-14 21:48:00,26.4,20.5,29.98,SSE,165,0.0,0.0,78,0.00,,OVC100,0.00,VWS V14.01,2013-02-15 02:48:00,
2013-02-14 21:54:00,26.4,20.5,29.98,SE,129,0.0,0.0,78,0.00,,OVC100,0.00,VWS V14.01,2013-02-15 02:54:00,
2013-02-14 21:59:00,26.4,20.5,29.98,SE,129,0.0,0.0,78,0.00,,OVC100,0.00,VWS V14.01,2013-02-15 02:59:00,
2013-02-14 22:04:00,26.4,20.5,29.98,SE,129,0.0,0.0,78,0.00,,OVC100,0.00,VWS V14.01,2013-02-15 03:04:00,
2013-02-14 22:09:00,26.4,20.5,29.98,SE,128,0.0,0.0,78,0.00,,OVC100,0.00,VWS V14.01,2013-02-15 03:09:00,
2013-02-14 22:14:00,26.8,21.1,29.98,SE,128,0.0,0.0,79,0.00,,OVC100,0.00,VWS V14.01,2013-02-15 03:14:00,
2013-02-14 22:19:00,26.8,21.1,29.98,SE,128,0.0,0.0,79,0.00,,OVC100,0.00,VWS V14.01,2013-02-15 03:19:00,
2013-02-14 22:24:00,26.8,21.1,29.98,South,170,0.0,0.0,79,0.00,,OVC100,0.00,VWS V14.01,2013-02-15 03:24:00,
2013-02-14 22:29:00,26.8,21.1,29.98,South,170,0.0,0.0,79,0.00,,OVC100,0.00,VWS V14.01,2013-02-15 03:29:00,
2013-02-14 22:34:00,26.8,21.1,29.98,South,170,0.0,0.0,79,0.00,,OVC100,0.00,VWS V14.01,2013-02-15 03:34:00,
2013-02-14 22:39:00,26.8,21.1,29.98,SSE,147,0.0,0.0,79,0.00,,OVC100,0.00,VWS V14.01,2013-02-15 03:39:00,
2013-02-14 22:44:00,26.8,21.1,29.98,ENE,58,0.0,0.0,79,0.00,,OVC070,0.00,VWS V14.01,2013-02-15 03:44:00,
2013-02-14 22:49:00,26.8,21.1,29.98,ENE,58,0.0,0.0,79,0.00,,OVC070,0.00,VWS V14.01,2013-02-15 03:49:00,
2013-02-14 22:54:00,26.8,21.1,29.98,SSE,166,0.0,0.0,79,0.00,,OVC070,0.00,VWS V14.01,2013-02-15 03:54:00,
2013-02-14 22:59:00,26.8,21.1,29.98,SSE,160,5.4,5.4,79,0.00,,OVC070,0.00,VWS V14.01,2013-02-15 03:59:00,
2013-02-14 23:04:00,26.8,21.1,29.98,South,171,5.8,5.8,79,0.00,,OVC070,0.00,VWS V14.01,2013-02-15 04:04:00,
2013-02-14 23:09:00,26.8,21.1,29.98,SSE,153,2.7,2.7,79,0.00,,OVC070,0.00,VWS V14.01,2013-02-15 04:09:00,
2013-02-14 23:14:00,29.5,24.7,29.98,South,172,0.0,0.0,82,0.00,,OVC070,0.00,VWS V14.01,2013-02-15 04:14:00,
2013-02-14 23:19:00,29.7,24.6,29.98,SSE,164,0.0,0.0,81,0.00,,OVC070,0.00,VWS V14.01,2013-02-15 04:19:00,
2013-02-14 23:24:00,29.8,24.7,29.98,SSE,160,0.0,0.0,81,0.00,,OVC070,0.00,VWS V14.01,2013-02-15 04:24:00,
2013-02-14 23:29:00,29.8,24.7,29.98,SSE,160,0.0,0.0,81,0.00,,OVC070,0.00,VWS V14.01,2013-02-15 04:29:00,
2013-02-14 23:34:00,29.8,24.7,29.98,SSE,160,0.0,0.0,81,0.00,,OVC070,0.00,VWS V14.01,2013-02-15 04:34:00,
2013-02-14 23:39:00,29.7,24.6,29.98,SSE,160,0.0,0.0,81,0.00,,OVC070,0.00,VWS V14.01,2013-02-15 04:39:00,
2013-02-14 23:44:00,29.5,24.4,29.98,SSE,160,0.0,0.0,81,0.00,,OVC060,0.00,VWS V14.01,2013-02-15 04:44:00,
2013-02-14 23:49:00,29.5,24.4,29.98,SSE,160,0.0,0.0,81,0.00,,OVC060,0.00,VWS V14.01,2013-02-15 04:49:00,
2013-02-14 23:54:00,29.5,24.4,29.98,SSE,160,0.0,0.0,81,0.00,,OVC060,0.00,VWS V14.01,2013-02-15 04:54:00,
2013-02-14 23:59:00,29.5,24.4,29.98,SSE,160,0.0,0.0,81,0.00,,OVC060,0.00,VWS V14.01,2013-02-15 04:59:00,